Time;durP1;ratioP1;P1;durP2;ratioP2;P2;SDS_P1;SDS_P2;PMS_P1;PMS_P2;Temp;Humidity;BMP_temperature;BMP_pressure;BME280_temperature;BME280_humidity;BME280_pressure;Samples;Min_cycle;Max_cycle;Signal;HPM_P1;HPM_P2
2021/05/15 00:01:26;;;;;;;4.67;4.27;;;11.60;99.90;;;;;;5092754;28;20154;-67
2021/05/15 00:03:52;;;;;;;3.47;3.13;;;11.60;99.90;;;;;;5092698;28;20535;-67
2021/05/15 00:06:17;;;;;;;3.97;3.67;;;11.50;99.90;;;;;;5093175;28;20393;-67
2021/05/15 00:08:43;;;;;;;3.90;2.77;;;11.50;99.90;;;;;;5092527;28;20152;-67
2021/05/15 00:11:09;;;;;;;4.27;3.27;;;11.40;99.90;;;;;;5092529;28;20210;-67
2021/05/15 00:13:35;;;;;;;4.10;3.70;;;11.40;99.90;;;;;;5110386;28;20640;-67
2021/05/15 00:16:00;;;;;;;3.13;2.93;;;11.30;99.90;;;;;;5112795;28;20600;-67
2021/05/15 00:18:26;;;;;;;3.43;3.13;;;11.30;99.90;;;;;;5113001;28;20161;-67
2021/05/15 00:20:51;;;;;;;2.97;2.73;;;11.30;99.90;;;;;;5113312;28;20263;-67
2021/05/15 00:23:17;;;;;;;3.47;3.23;;;11.20;99.90;;;;;;5115448;28;20167;-67
2021/05/15 00:25:42;;;;;;;3.30;3.00;;;11.20;99.90;;;;;;5116923;28;20165;-67
2021/05/15 00:28:08;;;;;;;4.47;4.07;;;11.20;99.90;;;;;;5116690;28;20177;-67
2021/05/15 00:30:34;;;;;;;23.67;14.57;;;11.10;99.90;;;;;;5115886;28;20180;-67
2021/05/15 00:32:59;;;;;;;17.67;12.70;;;11.10;99.90;;;;;;5116579;28;20539;-67
2021/05/15 00:35:25;;;;;;;14.73;10.57;;;11.10;99.90;;;;;;5116554;28;20694;-67
2021/05/15 00:37:51;;;;;;;9.63;7.90;;;11.10;99.90;;;;;;5116711;28;20172;-67
2021/05/15 00:40:17;;;;;;;6.23;5.23;;;11.00;99.90;;;;;;5116466;28;20644;-67
2021/05/15 00:42:43;;;;;;;8.73;6.40;;;11.00;99.90;;;;;;5116389;28;20452;-67
2021/05/15 00:45:10;;;;;;;8.03;5.60;;;11.00;99.90;;;;;;5116418;28;20401;-67
2021/05/15 00:47:36;;;;;;;4.63;4.23;;;11.00;99.90;;;;;;5115591;28;20413;-67
2021/05/15 00:50:04;;;;;;;5.60;4.37;;;10.90;99.90;;;;;;5116616;28;20397;-67
2021/05/15 00:52:34;;;;;;;5.77;4.40;;;10.90;99.90;;;;;;5116251;28;20571;-67
2021/05/15 00:55:00;;;;;;;6.27;3.40;;;10.90;99.90;;;;;;5116208;28;20421;-67
2021/05/15 00:57:26;;;;;;;3.80;2.90;;;10.80;99.90;;;;;;5116083;28;20398;-67
2021/05/15 00:59:52;;;;;;;3.90;3.30;;;10.80;99.90;;;;;;5116184;28;20492;-67
2021/05/15 01:02:17;;;;;;;3.80;3.50;;;10.80;99.90;;;;;;5116319;28;20436;-67
2021/05/15 01:04:43;;;;;;;4.83;4.30;;;10.80;99.90;;;;;;5115184;28;20224;-67
2021/05/15 01:07:10;;;;;;;3.97;3.57;;;10.70;99.90;;;;;;5115889;28;20167;-67
2021/05/15 01:09:37;;;;;;;4.90;3.63;;;10.70;99.90;;;;;;5113915;28;20167;-67
2021/05/15 01:12:06;;;;;;;3.63;3.30;;;10.70;99.90;;;;;;5095668;28;20467;-67
2021/05/15 01:14:34;;;;;;;4.23;3.83;;;10.70;99.90;;;;;;5095575;28;20406;-67
2021/05/15 01:16:59;;;;;;;4.70;3.53;;;10.70;99.90;;;;;;5095281;28;20439;-67
2021/05/15 01:19:25;;;;;;;6.47;5.73;;;10.60;99.90;;;;;;5095463;28;20473;-67
2021/05/15 01:21:51;;;;;;;6.00;5.40;;;10.60;99.90;;;;;;5095723;28;20979;-67
2021/05/15 01:24:17;;;;;;;7.20;5.73;;;10.60;99.90;;;;;;5095157;28;20239;-67
2021/05/15 01:26:42;;;;;;;8.80;7.03;;;10.60;99.90;;;;;;5095378;28;20261;-67
2021/05/15 01:29:08;;;;;;;6.63;5.73;;;10.60;99.90;;;;;;5095277;28;20175;-67
2021/05/15 01:31:35;;;;;;;8.00;6.47;;;10.60;99.90;;;;;;5094907;28;20587;-67
2021/05/15 01:34:03;;;;;;;6.43;5.83;;;10.60;99.90;;;;;;5095029;28;20564;-67
2021/05/15 01:36:29;;;;;;;6.40;5.60;;;10.60;99.90;;;;;;5095007;28;20457;-67
2021/05/15 01:38:55;;;;;;;5.20;4.80;;;10.60;99.90;;;;;;5095419;28;20481;-67
2021/05/15 01:41:21;;;;;;;6.13;5.33;;;10.60;99.90;;;;;;5094953;28;20160;-67
2021/05/15 01:43:47;;;;;;;7.30;6.60;;;10.60;99.90;;;;;;5094903;28;20440;-67
2021/05/15 01:46:13;;;;;;;9.70;5.93;;;10.60;99.90;;;;;;5094839;28;20761;-67
2021/05/15 01:48:40;;;;;;;7.27;6.57;;;10.60;99.90;;;;;;5094847;28;20401;-67
2021/05/15 01:51:08;;;;;;;7.10;6.50;;;10.50;99.90;;;;;;5094691;28;20479;-67
2021/05/15 01:53:37;;;;;;;6.60;6.00;;;10.50;99.90;;;;;;5095163;28;20459;-67
2021/05/15 01:56:07;;;;;;;6.30;5.70;;;10.50;99.90;;;;;;5094361;28;20450;-67
2021/05/15 01:58:33;;;;;;;8.80;7.03;;;10.50;99.90;;;;;;5094607;28;20420;-67
2021/05/15 02:00:59;;;;;;;7.97;6.93;;;10.50;99.90;;;;;;5094648;28;20390;-67
2021/05/15 02:03:25;;;;;;;7.03;6.43;;;10.50;99.90;;;;;;5094563;28;20877;-67
2021/05/15 02:05:52;;;;;;;7.50;6.47;;;10.50;99.90;;;;;;5094381;28;20476;-67
2021/05/15 02:08:18;;;;;;;7.03;6.33;;;10.50;99.90;;;;;;5094441;28;20447;-67
2021/05/15 02:10:44;;;;;;;5.83;5.33;;;10.60;99.90;;;;;;5096143;28;20421;-67
2021/05/15 02:13:10;;;;;;;5.40;5.00;;;10.60;99.90;;;;;;5114833;28;20397;-67
2021/05/15 02:15:37;;;;;;;5.53;4.40;;;10.60;99.90;;;;;;5114623;28;20643;-67
2021/05/15 02:18:04;;;;;;;4.60;4.03;;;10.60;99.90;;;;;;5114920;28;20896;-67
2021/05/15 02:20:30;;;;;;;4.13;3.67;;;10.60;99.90;;;;;;5114507;28;20413;-67
2021/05/15 02:22:57;;;;;;;6.50;3.40;;;10.60;99.90;;;;;;5114953;28;20388;-70
2021/05/15 02:25:24;;;;;;;3.63;3.33;;;10.60;99.90;;;;;;5114759;28;20408;-70
2021/05/15 02:27:50;;;;;;;4.37;3.97;;;10.60;99.90;;;;;;5113648;28;20959;-70
2021/05/15 02:30:17;;;;;;;3.50;3.20;;;10.70;99.90;;;;;;5114390;28;20388;-70
2021/05/15 02:32:42;;;;;;;3.30;3.00;;;10.70;99.90;;;;;;5114577;28;20447;-70
2021/05/15 02:35:08;;;;;;;3.40;3.13;;;10.80;99.90;;;;;;5114122;28;20421;-70
2021/05/15 02:37:34;;;;;;;3.80;2.97;;;10.80;99.90;;;;;;5114278;28;20156;-70
2021/05/15 02:40:00;;;;;;;5.27;3.77;;;10.90;99.90;;;;;;5114287;28;20482;-70
2021/05/15 02:42:26;;;;;;;3.90;3.00;;;10.90;99.90;;;;;;5114090;28;20175;-70
2021/05/15 02:44:52;;;;;;;4.00;3.17;;;10.90;99.90;;;;;;5112887;28;20404;-71
2021/05/15 02:47:20;;;;;;;3.20;3.00;;;10.90;99.90;;;;;;5114336;28;20660;-70
2021/05/15 02:49:46;;;;;;;3.20;2.90;;;10.90;99.90;;;;;;5114802;27;20402;-67
2021/05/15 02:52:11;;;;;;;3.90;3.50;;;10.90;99.90;;;;;;5113994;28;20393;-67
2021/05/15 02:54:37;;;;;;;3.30;3.03;;;10.90;99.90;;;;;;5113965;28;20681;-67
2021/05/15 02:57:03;;;;;;;3.60;2.73;;;11.00;99.90;;;;;;5113830;28;20656;-67
2021/05/15 02:59:29;;;;;;;3.50;3.00;;;11.00;99.90;;;;;;5113618;28;20756;-67
2021/05/15 03:01:54;;;;;;;4.83;3.50;;;11.00;99.90;;;;;;5113311;28;20441;-67
2021/05/15 03:04:20;;;;;;;3.63;3.17;;;11.00;99.90;;;;;;5113890;28;20152;-67
2021/05/15 03:06:45;;;;;;;3.20;3.00;;;11.00;99.90;;;;;;5113780;28;20164;-67
2021/05/15 03:09:11;;;;;;;3.53;3.27;;;11.00;99.90;;;;;;5113784;28;20202;-67
2021/05/15 03:11:36;;;;;;;3.73;3.40;;;11.10;99.90;;;;;;5094898;28;20184;-67
2021/05/15 03:14:02;;;;;;;4.20;3.80;;;11.10;99.90;;;;;;5093205;28;20178;-67
2021/05/15 03:16:28;;;;;;;6.03;4.27;;;11.10;99.90;;;;;;5093118;28;20204;-67
2021/05/15 03:18:54;;;;;;;11.23;7.17;;;11.10;99.90;;;;;;5096746;28;20258;-67
2021/05/15 03:21:19;;;;;;;11.27;6.10;;;11.10;99.90;;;;;;5113538;28;20170;-67
2021/05/15 03:23:45;;;;;;;6.67;5.03;;;11.20;99.90;;;;;;5113427;28;20234;-67
2021/05/15 03:26:10;;;;;;;6.40;3.97;;;11.20;99.90;;;;;;5113465;28;20515;-67
2021/05/15 03:28:36;;;;;;;4.30;3.90;;;11.20;99.90;;;;;;5113406;28;20156;-67
2021/05/15 03:31:01;;;;;;;3.97;3.60;;;11.20;99.90;;;;;;5113514;28;20231;-67
2021/05/15 03:33:27;;;;;;;4.40;3.83;;;11.20;99.90;;;;;;5113373;28;20225;-67
2021/05/15 03:35:52;;;;;;;4.60;3.50;;;11.20;99.90;;;;;;5112322;28;20203;-67
2021/05/15 03:38:18;;;;;;;3.87;3.57;;;11.20;99.90;;;;;;5113329;28;20151;-67
2021/05/15 03:40:43;;;;;;;3.77;3.10;;;11.20;99.90;;;;;;5113263;28;20555;-67
2021/05/15 03:43:09;;;;;;;3.93;3.10;;;11.10;99.90;;;;;;5113200;28;20160;-67
2021/05/15 03:45:34;;;;;;;3.30;3.00;;;11.10;99.90;;;;;;5113303;28;20166;-67
2021/05/15 03:48:00;;;;;;;5.00;2.93;;;11.10;99.90;;;;;;5113161;28;20216;-67
2021/05/15 03:50:26;;;;;;;2.93;2.73;;;11.10;99.90;;;;;;5113138;28;20163;-67
2021/05/15 03:52:52;;;;;;;3.37;2.67;;;11.10;99.90;;;;;;5112236;28;20173;-67
2021/05/15 03:55:18;;;;;;;3.10;2.70;;;11.10;99.90;;;;;;5113090;28;20446;-67
2021/05/15 03:57:44;;;;;;;3.17;2.93;;;11.10;99.90;;;;;;5115050;28;20398;-67
2021/05/15 04:00:10;;;;;;;4.27;2.60;;;11.00;99.90;;;;;;5117416;28;20183;-67
2021/05/15 04:02:37;;;;;;;3.13;2.60;;;11.00;99.90;;;;;;5117379;28;20166;-67
2021/05/15 04:05:05;;;;;;;4.13;3.40;;;11.00;99.90;;;;;;5117340;28;20417;-67
2021/05/15 04:07:31;;;;;;;3.57;2.90;;;11.10;99.90;;;;;;5117104;28;20420;-67
2021/05/15 04:09:57;;;;;;;2.80;2.60;;;11.10;99.90;;;;;;5112616;28;20410;-67
2021/05/15 04:12:24;;;;;;;3.27;2.93;;;11.10;99.90;;;;;;5097091;28;20518;-67
2021/05/15 04:15:02;;;;;;;2.87;2.67;;;11.10;99.90;;;;;;5097336;28;20602;-67
2021/05/15 04:17:29;;;;;;;4.20;3.80;;;11.10;99.90;;;;;;5096626;28;20394;-67
2021/05/15 04:19:55;;;;;;;3.20;3.00;;;11.10;99.90;;;;;;5096698;28;20387;-67
2021/05/15 04:22:21;;;;;;;3.57;3.27;;;11.10;99.90;;;;;;5096514;28;20453;-67
2021/05/15 04:24:47;;;;;;;3.93;3.00;;;11.10;99.90;;;;;;5096483;28;20392;-67
2021/05/15 04:27:13;;;;;;;3.60;3.30;;;11.10;99.90;;;;;;5097375;28;20235;-67
2021/05/15 04:29:39;;;;;;;3.40;3.10;;;11.10;99.90;;;;;;5096954;28;20166;-67
2021/05/15 04:32:05;;;;;;;3.80;3.40;;;11.10;99.90;;;;;;5096424;28;20390;-67
2021/05/15 04:34:31;;;;;;;3.67;3.37;;;11.00;99.90;;;;;;5096403;28;20397;-67
2021/05/15 04:36:59;;;;;;;4.93;3.70;;;11.00;99.90;;;;;;5096111;28;20461;-67
2021/05/15 04:39:26;;;;;;;3.30;3.00;;;11.00;99.90;;;;;;5096187;28;20164;-67
2021/05/15 04:41:52;;;;;;;3.53;3.33;;;11.00;99.90;;;;;;5096521;28;20399;-67
2021/05/15 04:44:18;;;;;;;4.40;3.43;;;11.00;99.90;;;;;;5103486;28;20422;-67
2021/05/15 04:46:44;;;;;;;5.33;3.40;;;11.10;99.90;;;;;;5116667;28;20435;-67
2021/05/15 04:49:09;;;;;;;4.13;3.80;;;11.10;99.90;;;;;;5116491;28;20218;-67
2021/05/15 04:51:35;;;;;;;3.70;3.40;;;11.20;99.90;;;;;;5116315;28;20529;-67
2021/05/15 04:54:02;;;;;;;4.63;3.93;;;11.20;99.90;;;;;;5116227;28;20196;-67
2021/05/15 04:56:28;;;;;;;4.73;4.13;;;11.10;99.90;;;;;;5116886;28;20666;-67
2021/05/15 04:58:55;;;;;;;3.90;3.57;;;11.10;99.90;;;;;;5116574;28;20424;-67
2021/05/15 05:01:23;;;;;;;4.53;4.17;;;11.00;99.90;;;;;;5115413;28;20841;-67
2021/05/15 05:03:49;;;;;;;4.30;3.90;;;10.90;99.90;;;;;;5116215;28;20396;-67
2021/05/15 05:06:14;;;;;;;5.03;4.67;;;11.00;99.90;;;;;;5116102;28;20875;-67
2021/05/15 05:08:40;;;;;;;5.40;5.00;;;10.90;99.90;;;;;;5115798;28;20205;-67
2021/05/15 05:11:05;;;;;;;5.00;4.33;;;11.00;99.90;;;;;;5102194;28;20180;-67
2021/05/15 05:13:31;;;;;;;5.37;4.87;;;11.00;99.90;;;;;;5095974;28;20172;-67
2021/05/15 05:15:56;;;;;;;4.60;4.20;;;11.10;99.90;;;;;;5095697;28;20297;-67
2021/05/15 05:18:24;;;;;;;4.70;4.27;;;11.10;99.90;;;;;;5096117;28;20184;-67
2021/05/15 05:20:49;;;;;;;4.47;4.07;;;11.10;99.90;;;;;;5095450;28;20162;-67
2021/05/15 05:23:15;;;;;;;5.10;4.70;;;11.10;99.90;;;;;;5095513;28;20399;-67
2021/05/15 05:25:40;;;;;;;5.50;5.00;;;11.20;99.90;;;;;;5095805;28;20169;-67
2021/05/15 05:28:07;;;;;;;5.50;5.00;;;11.20;99.90;;;;;;5095396;28;20180;-67
2021/05/15 05:30:32;;;;;;;6.33;5.13;;;11.20;99.90;;;;;;5095359;28;20557;-67
2021/05/15 05:32:59;;;;;;;4.80;4.50;;;11.20;99.90;;;;;;5095258;28;20390;-67
2021/05/15 05:35:26;;;;;;;4.57;4.27;;;11.20;99.90;;;;;;5095537;28;20215;-67
2021/05/15 05:37:52;;;;;;;5.20;4.80;;;11.20;99.90;;;;;;5095374;28;20441;-67
2021/05/15 05:40:18;;;;;;;4.60;4.20;;;11.20;99.90;;;;;;5095643;28;20405;-67
2021/05/15 05:42:44;;;;;;;4.63;4.33;;;11.20;99.90;;;;;;5095177;28;20180;-67
2021/05/15 05:45:12;;;;;;;4.63;4.23;;;11.20;99.90;;;;;;5095080;28;20418;-67
2021/05/15 05:47:38;;;;;;;5.47;4.30;;;11.20;99.90;;;;;;5095005;28;20473;-67
2021/05/15 05:50:05;;;;;;;4.80;4.40;;;11.10;99.90;;;;;;5094955;28;20387;-67
2021/05/15 05:52:31;;;;;;;5.80;5.30;;;11.20;99.90;;;;;;5095469;28;20409;-67
2021/05/15 05:54:57;;;;;;;4.80;4.40;;;11.10;99.90;;;;;;5095654;28;20406;-67
2021/05/15 05:57:23;;;;;;;5.50;5.00;;;11.20;99.90;;;;;;5095225;28;20188;-67
2021/05/15 05:59:49;;;;;;;5.03;4.63;;;11.10;99.90;;;;;;5094632;28;20186;-67
2021/05/15 06:02:14;;;;;;;5.40;5.00;;;11.20;99.90;;;;;;5094763;28;20451;-67
2021/05/15 06:04:40;;;;;;;4.87;4.47;;;11.30;99.90;;;;;;5094704;28;20208;-67
2021/05/15 06:07:07;;;;;;;5.40;4.70;;;11.40;99.90;;;;;;5094723;28;20252;-67
2021/05/15 06:09:33;;;;;;;5.17;4.77;;;11.40;99.90;;;;;;5096815;28;20178;-67
2021/05/15 06:11:59;;;;;;;5.27;4.80;;;11.40;99.90;;;;;;5114938;28;20400;-67
2021/05/15 06:14:27;;;;;;;6.43;5.83;;;11.30;99.90;;;;;;5114864;28;20388;-67
2021/05/15 06:16:53;;;;;;;5.67;5.27;;;11.30;99.90;;;;;;5114730;28;20193;-67
2021/05/15 06:19:18;;;;;;;5.60;5.10;;;11.30;99.90;;;;;;5114234;28;20722;-67
2021/05/15 06:21:44;;;;;;;6.00;5.50;;;11.30;99.90;;;;;;5114402;28;20165;-67
2021/05/15 06:24:10;;;;;;;6.00;5.47;;;11.30;99.90;;;;;;5115068;28;20188;-67
2021/05/15 06:26:36;;;;;;;5.80;5.37;;;11.30;99.90;;;;;;5113812;28;20180;-67
2021/05/15 06:29:03;;;;;;;6.00;5.40;;;11.30;99.90;;;;;;5114485;28;20960;-67
2021/05/15 06:31:29;;;;;;;5.90;5.40;;;11.40;99.90;;;;;;5114469;28;20383;-67
2021/05/15 06:33:54;;;;;;;7.13;6.13;;;11.40;99.90;;;;;;5114399;28;20388;-67
2021/05/15 06:36:20;;;;;;;5.53;5.10;;;11.30;99.90;;;;;;5114329;28;20745;-67
2021/05/15 06:38:45;;;;;;;6.03;5.57;;;11.40;99.90;;;;;;5115192;28;20198;-67
2021/05/15 06:41:11;;;;;;;5.23;4.50;;;11.30;99.90;;;;;;5114708;28;20157;-67
2021/05/15 06:43:37;;;;;;;5.97;5.17;;;11.30;99.90;;;;;;5113684;28;20181;-67
2021/05/15 06:46:02;;;;;;;5.17;4.77;;;11.40;99.90;;;;;;5114250;28;20161;-67
2021/05/15 06:48:28;;;;;;;5.50;5.00;;;11.40;99.90;;;;;;5114322;28;20161;-67
2021/05/15 06:50:53;;;;;;;5.93;5.27;;;11.40;99.90;;;;;;5114936;28;20203;-67
2021/05/15 06:53:19;;;;;;;6.30;5.70;;;11.40;99.90;;;;;;5114504;28;20553;-67
2021/05/15 06:55:44;;;;;;;5.83;5.33;;;11.40;99.90;;;;;;5114014;28;20718;-67
2021/05/15 06:58:10;;;;;;;6.00;5.50;;;11.50;99.90;;;;;;5114104;28;20180;-67
2021/05/15 07:00:36;;;;;;;6.47;5.97;;;11.50;99.90;;;;;;5113131;28;20212;-67
2021/05/15 07:03:01;;;;;;;6.23;5.73;;;11.50;99.90;;;;;;5113850;28;20153;-67
2021/05/15 07:05:27;;;;;;;6.07;5.67;;;11.50;99.90;;;;;;5114633;28;20169;-67
2021/05/15 07:07:53;;;;;;;7.00;6.40;;;11.50;99.90;;;;;;5114572;28;20185;-67
2021/05/15 07:10:18;;;;;;;7.47;6.50;;;11.40;99.90;;;;;;5097649;28;20181;-67
2021/05/15 07:12:44;;;;;;;6.80;6.20;;;11.40;99.90;;;;;;5093493;28;20217;-67
2021/05/15 07:15:10;;;;;;;5.90;5.40;;;11.50;99.90;;;;;;5093357;28;20163;-67
2021/05/15 07:17:36;;;;;;;5.90;5.30;;;11.60;99.90;;;;;;5094160;28;20182;-67
2021/05/15 07:20:03;;;;;;;5.57;5.07;;;11.70;99.90;;;;;;5093709;28;20396;-67
2021/05/15 07:22:29;;;;;;;5.70;5.30;;;11.80;99.90;;;;;;5094233;28;20570;-67
2021/05/15 07:24:56;;;;;;;5.53;5.07;;;11.90;99.90;;;;;;5093290;28;20395;-67
2021/05/15 07:27:23;;;;;;;6.73;6.10;;;11.80;99.90;;;;;;5093234;28;20399;-67
2021/05/15 07:29:52;;;;;;;6.83;6.13;;;11.80;99.90;;;;;;5093169;28;20446;-67
2021/05/15 07:32:18;;;;;;;6.10;5.60;;;11.80;99.90;;;;;;5092945;28;20389;-67
2021/05/15 07:34:43;;;;;;;6.90;6.10;;;11.80;99.90;;;;;;5093822;28;20427;-67
2021/05/15 07:37:09;;;;;;;7.00;5.90;;;11.80;99.90;;;;;;5093496;28;20443;-67
2021/05/15 07:39:36;;;;;;;6.83;6.33;;;11.80;99.90;;;;;;5093397;28;20223;-67
2021/05/15 07:42:02;;;;;;;8.00;7.30;;;11.90;99.90;;;;;;5092956;28;20470;-67
2021/05/15 07:44:28;;;;;;;7.90;7.20;;;11.80;99.90;;;;;;5092998;28;20745;-67
2021/05/15 07:46:53;;;;;;;7.63;7.00;;;11.80;99.90;;;;;;5092831;28;20419;-67
2021/05/15 07:49:19;;;;;;;9.63;8.83;;;11.70;99.90;;;;;;5093070;28;20150;-67
2021/05/15 07:51:45;;;;;;;10.37;8.80;;;11.60;99.90;;;;;;5093938;28;20177;-67
2021/05/15 07:54:11;;;;;;;9.50;8.70;;;11.60;99.90;;;;;;5092906;28;20159;-67
2021/05/15 07:56:37;;;;;;;9.87;9.07;;;11.60;99.90;;;;;;5092910;28;20790;-67
2021/05/15 07:59:03;;;;;;;10.00;9.00;;;11.60;99.90;;;;;;5092616;28;20428;-67
2021/05/15 08:01:28;;;;;;;11.33;10.33;;;11.60;99.90;;;;;;5092866;28;20163;-67
2021/05/15 08:03:54;;;;;;;12.37;11.27;;;11.60;99.90;;;;;;5093082;28;20157;-67
2021/05/15 08:06:19;;;;;;;12.47;11.40;;;11.60;99.90;;;;;;5093700;28;20166;-67
2021/05/15 08:08:45;;;;;;;12.03;10.40;;;11.60;99.90;;;;;;5096205;28;20639;-67
2021/05/15 08:11:11;;;;;;;11.60;10.60;;;11.60;99.90;;;;;;5113061;28;20639;-67
2021/05/15 08:13:38;;;;;;;10.23;9.30;;;11.60;99.90;;;;;;5113080;28;20165;-67
2021/05/15 08:16:04;;;;;;;11.23;10.23;;;11.70;99.90;;;;;;5113613;28;20439;-67
2021/05/15 08:18:30;;;;;;;12.13;11.10;;;11.70;99.90;;;;;;5113264;28;20392;-67
2021/05/15 08:20:56;;;;;;;11.30;10.30;;;11.70;99.90;;;;;;5113362;28;20414;-67
2021/05/15 08:23:21;;;;;;;12.03;11.03;;;11.80;99.90;;;;;;5112902;27;20166;-67
2021/05/15 08:25:47;;;;;;;12.40;11.30;;;11.80;99.90;;;;;;5112111;28;20181;-67
2021/05/15 08:28:14;;;;;;;11.90;10.90;;;12.00;99.90;;;;;;5112983;28;20662;-67
2021/05/15 08:30:42;;;;;;;11.33;10.33;;;12.10;99.90;;;;;;5113480;28;20557;-67
2021/05/15 08:33:08;;;;;;;9.50;8.70;;;12.20;99.90;;;;;;5113465;27;20900;-67
2021/05/15 08:35:34;;;;;;;11.83;10.83;;;12.40;99.90;;;;;;5113059;28;20459;-67
2021/05/15 08:38:04;;;;;;;10.60;9.70;;;12.60;99.90;;;;;;5112892;28;20392;-69
2021/05/15 08:40:30;;;;;;;10.10;9.10;;;12.90;99.90;;;;;;5112857;28;20492;-67
2021/05/15 08:42:56;;;;;;;14.53;9.07;;;13.20;99.90;;;;;;5112888;28;20923;-67
2021/05/15 08:45:24;;;;;;;11.70;10.53;;;13.40;99.90;;;;;;5117030;28;20158;-67
2021/05/15 08:47:51;;;;;;;10.07;9.17;;;13.50;99.90;;;;;;5116725;28;20388;-67
2021/05/15 08:50:20;;;;;;;9.30;8.40;;;13.70;99.90;;;;;;5116848;28;20395;-67
2021/05/15 08:52:50;;;;;;;8.40;7.50;;;13.90;99.90;;;;;;5116488;27;20391;-67
2021/05/15 08:55:20;;;;;;;6.70;6.00;;;15.20;99.90;;;;;;5116061;27;20407;-67
2021/05/15 08:57:46;;;;;;;7.40;6.07;;;16.60;99.90;;;;;;5116125;28;20397;-67
2021/05/15 09:00:16;;;;;;;7.10;5.80;;;17.10;99.90;;;;;;5101919;28;20439;-67
2021/05/15 09:02:43;;;;;;;7.80;7.17;;;17.00;99.90;;;;;;5096422;28;20151;-67
2021/05/15 09:05:10;;;;;;;9.80;7.33;;;16.60;99.90;;;;;;5095903;28;20401;-67
2021/05/15 09:07:36;;;;;;;8.53;7.83;;;16.30;99.90;;;;;;5095643;28;20458;-67
2021/05/15 09:10:04;;;;;;;7.87;7.17;;;15.90;99.90;;;;;;5095690;28;20410;-67
2021/05/15 09:12:30;;;;;;;9.00;8.10;;;15.60;99.90;;;;;;5095702;28;20758;-67
2021/05/15 09:14:58;;;;;;;7.77;7.07;;;15.40;99.90;;;;;;5096302;28;20415;-67
2021/05/15 09:17:23;;;;;;;7.97;7.20;;;15.10;99.90;;;;;;5112116;28;20462;-67
2021/05/15 09:19:52;;;;;;;7.07;6.40;;;15.10;99.90;;;;;;5115929;28;20402;-67
2021/05/15 09:22:24;;;;;;;8.10;7.40;;;15.60;99.90;;;;;;5115854;28;20158;-67
2021/05/15 09:24:49;;;;;;;7.40;6.80;;;16.20;99.90;;;;;;5115761;28;20388;-67
2021/05/15 09:27:15;;;;;;;7.00;6.40;;;16.90;99.90;;;;;;5115939;28;20417;-67
2021/05/15 09:29:44;;;;;;;7.47;6.87;;;17.20;99.90;;;;;;5115849;28;20161;-67
2021/05/15 09:32:11;;;;;;;6.57;6.07;;;17.20;99.90;;;;;;5116008;28;20237;-67
2021/05/15 09:34:47;;;;;;;6.83;6.33;;;17.10;99.90;;;;;;5114938;28;20408;-67
2021/05/15 09:37:12;;;;;;;7.30;6.70;;;17.10;99.90;;;;;;5115425;28;20530;-67
2021/05/15 09:39:38;;;;;;;7.03;6.47;;;17.40;99.90;;;;;;5115575;28;20479;-67
2021/05/15 09:42:07;;;;;;;6.03;5.53;;;17.90;99.90;;;;;;5115533;28;20159;-67
2021/05/15 09:44:35;;;;;;;4.97;4.57;;;18.40;99.90;;;;;;5115471;28;20208;-67
2021/05/15 09:47:01;;;;;;;6.90;6.30;;;18.80;99.90;;;;;;5115893;27;20476;-67
2021/05/15 09:49:28;;;;;;;6.77;6.00;;;18.80;99.90;;;;;;5115120;28;20395;-67
2021/05/15 09:51:56;;;;;;;5.70;5.30;;;18.80;99.90;;;;;;5115023;28;20219;-67
2021/05/15 09:54:25;;;;;;;5.10;4.70;;;18.80;99.90;;;;;;5115276;28;20877;-67
2021/05/15 09:57:13;;;;;;;4.90;4.50;;;19.00;99.90;;;;;;5115143;28;20454;-67
2021/05/15 09:59:41;;;;;;;4.20;3.90;;;19.10;99.90;;;;;;5114252;28;20423;-67
2021/05/15 10:02:10;;;;;;;4.33;4.03;;;19.30;99.90;;;;;;5115528;27;20496;-67
2021/05/15 10:04:35;;;;;;;3.50;3.30;;;19.40;99.90;;;;;;5115067;27;20828;-67
2021/05/15 10:07:02;;;;;;;4.90;3.60;;;19.40;99.90;;;;;;5109813;28;20798;-67
2021/05/15 10:09:31;;;;;;;3.47;3.13;;;19.30;99.90;;;;;;5112393;28;20234;-67
2021/05/15 10:11:58;;;;;;;3.30;2.97;;;19.10;98.50;;;;;;5114960;28;20407;-67
2021/05/15 10:14:24;;;;;;;3.23;3.03;;;18.90;99.60;;;;;;5115048;28;20404;-67
2021/05/15 10:16:50;;;;;;;3.50;3.20;;;18.80;99.70;;;;;;5115248;28;20442;-67
2021/05/15 10:19:15;;;;;;;4.33;3.27;;;18.60;99.90;;;;;;5114738;28;20803;-67
2021/05/15 10:21:42;;;;;;;4.90;4.50;;;18.60;99.90;;;;;;5114441;27;20170;-67
2021/05/15 10:27:04;;;;;;;4.00;3.70;;;18.40;99.90;;;;;;5110872;27;20506;-66
2021/05/15 10:29:51;;;;;;;4.00;3.70;;;18.00;99.80;;;;;;5111363;28;20388;-69
2021/05/15 10:35:11;;;;;;;3.93;3.43;;;17.80;99.90;;;;;;5131572;27;20504;-68
2021/05/15 10:37:39;;;;;;;5.60;3.97;;;17.40;99.90;;;;;;5131644;28;20391;-68
2021/05/15 10:43:04;;;;;;;3.80;3.50;;;17.00;99.90;;;;;;5110335;27;20558;-68
2021/05/15 10:45:45;;;;;;;3.07;2.20;;;16.60;99.90;;;;;;5111188;28;20396;-68
2021/05/15 10:48:22;;;;;;;6.20;2.07;;;16.30;99.90;;;;;;5110672;28;20404;-68
2021/05/15 10:50:50;;;;;;;4.23;1.80;;;15.70;99.90;;;;;;5110898;28;20394;-68
2021/05/15 10:53:24;;;;;;;2.30;1.83;;;15.30;99.90;;;;;;5110795;28;20383;-68
2021/05/15 10:56:13;;;;;;;2.10;1.77;;;15.10;99.90;;;;;;5110651;28;20381;-68
2021/05/15 10:59:02;;;;;;;5.67;2.23;;;14.80;99.90;;;;;;5095661;28;20641;-69
2021/05/15 11:01:27;;;;;;;1.80;1.70;;;14.60;99.90;;;;;;5109690;28;20436;-68
2021/05/15 11:03:53;;;;;;;2.80;2.13;;;14.40;99.90;;;;;;5110607;28;20480;-69
2021/05/15 11:06:24;;;;;;;2.57;2.20;;;14.30;99.90;;;;;;5110791;28;20216;-68
2021/05/15 11:11:42;;;;;;;4.20;3.33;;;14.10;99.90;;;;;;5090705;27;20507;-68
2021/05/15 11:14:44;;;;;;;4.33;3.23;;;13.90;99.90;;;;;;5091159;28;20384;-69
2021/05/15 11:17:16;;;;;;;4.67;3.90;;;13.80;99.90;;;;;;5069418;28;20388;-69
2021/05/15 11:19:52;;;;;;;4.60;4.20;;;13.70;99.90;;;;;;5070276;28;20808;-68
2021/05/15 11:22:18;;;;;;;4.23;3.93;;;13.70;99.90;;;;;;5070382;28;20470;-68
2021/05/15 11:24:55;;;;;;;4.60;4.20;;;13.90;99.90;;;;;;5070334;28;20398;-68
2021/05/15 11:27:22;;;;;;;3.50;3.20;;;14.00;99.90;;;;;;5070455;28;20385;-68
2021/05/15 11:30:02;;;;;;;3.27;2.97;;;14.10;99.90;;;;;;5070064;28;20521;-69
2021/05/15 11:32:28;;;;;;;2.40;2.20;;;14.10;99.90;;;;;;5070788;28;20401;-68
2021/05/15 11:34:55;;;;;;;3.23;2.17;;;14.30;99.90;;;;;;5070236;28;20401;-68
2021/05/15 11:37:21;;;;;;;2.90;2.03;;;14.60;99.90;;;;;;5069706;28;20167;-68
2021/05/15 11:39:52;;;;;;;2.27;2.07;;;14.70;99.90;;;;;;5069830;28;20395;-68
2021/05/15 11:42:17;;;;;;;2.47;2.27;;;15.00;99.90;;;;;;5070315;28;20156;-69
2021/05/15 11:44:50;;;;;;;3.03;2.10;;;15.20;99.90;;;;;;5069800;28;20393;-69
2021/05/15 11:47:16;;;;;;;2.40;2.20;;;15.20;99.90;;;;;;5069718;28;20637;-68
2021/05/15 11:49:41;;;;;;;2.40;2.20;;;15.20;99.90;;;;;;5070348;28;20463;-68
2021/05/15 11:52:09;;;;;;;2.83;2.63;;;15.20;99.90;;;;;;5069587;28;20188;-69
2021/05/15 11:54:35;;;;;;;2.80;2.57;;;15.40;99.90;;;;;;5069609;28;20170;-68
2021/05/15 11:57:02;;;;;;;2.80;2.13;;;15.60;99.90;;;;;;5070155;28;20893;-69
2021/05/15 11:59:29;;;;;;;4.93;3.33;;;15.80;99.90;;;;;;5069387;28;20929;-69
2021/05/15 12:01:55;;;;;;;18.07;16.27;;;15.80;99.90;;;;;;5069281;28;20965;-68
2021/05/15 12:04:28;;;;;;;3.90;3.60;;;15.80;99.90;;;;;;5069416;28;20394;-68
2021/05/15 12:06:55;;;;;;;4.60;4.20;;;15.90;99.90;;;;;;5074014;28;20885;-68
2021/05/15 12:09:21;;;;;;;2.90;2.70;;;16.00;99.90;;;;;;5089509;28;20405;-69
2021/05/15 12:11:48;;;;;;;2.83;1.80;;;16.10;99.90;;;;;;5090291;28;20459;-69
2021/05/15 12:14:18;;;;;;;2.33;2.10;;;16.00;99.90;;;;;;5089568;28;20809;-68
2021/05/15 12:16:44;;;;;;;5.03;4.23;;;16.10;99.90;;;;;;5089363;28;20394;-68
2021/05/15 12:22:08;;;;;;;2.80;1.60;;;16.20;99.90;;;;;;5131453;27;20500;-68
2021/05/15 12:27:13;;;;;;;2.20;1.20;;;16.40;99.90;;;;;;5131902;27;20564;-67
2021/05/15 12:29:40;;;;;;;2.17;1.93;;;16.40;99.90;;;;;;5131692;28;20399;-67
2021/05/15 12:32:06;;;;;;;1.50;1.20;;;16.60;99.90;;;;;;5131411;28;20741;-67
2021/05/15 12:34:32;;;;;;;1.83;1.10;;;16.80;99.90;;;;;;5131393;28;20470;-68
2021/05/15 12:36:57;;;;;;;1.20;1.10;;;17.00;99.90;;;;;;5131323;28;20166;-67
2021/05/15 12:39:34;;;;;;;1.47;1.30;;;17.30;99.90;;;;;;5131488;28;20158;-68
2021/05/15 12:42:00;;;;;;;2.40;1.30;;;17.50;99.90;;;;;;5110806;28;20591;-68
2021/05/15 12:44:37;;;;;;;3.07;1.50;;;17.40;99.90;;;;;;5110588;28;20885;-67
2021/05/15 12:47:03;;;;;;;1.50;0.97;;;17.40;99.90;;;;;;5110515;28;20963;-68
2021/05/15 12:49:36;;;;;;;1.63;0.90;;;17.40;99.90;;;;;;5110713;28;20446;-67
2021/05/15 12:52:19;;;;;;;2.30;1.07;;;17.50;99.90;;;;;;5110804;28;20161;-67
2021/05/15 12:54:45;;;;;;;1.07;0.90;;;17.40;99.90;;;;;;5111051;28;20872;-68
2021/05/15 12:57:11;;;;;;;1.67;1.23;;;17.20;99.90;;;;;;5110879;28;20415;-67
2021/05/15 12:59:40;;;;;;;2.40;1.20;;;17.10;99.90;;;;;;5110127;28;20201;-67
2021/05/15 13:02:08;;;;;;;2.70;1.47;;;16.90;99.90;;;;;;5110345;28;20154;-67